createdAt,value
2018-12-16T00:01:35.167Z,3.37
2018-12-16T00:04:04.458Z,6.40
2018-12-16T00:06:33.963Z,7.70
2018-12-16T00:09:03.543Z,8.03
2018-12-16T00:11:32.919Z,6.53
2018-12-16T00:14:02.231Z,7.90
2018-12-16T00:16:31.567Z,3.63
2018-12-16T00:19:00.901Z,4.60
2018-12-16T00:21:30.370Z,9.57
2018-12-16T00:23:59.754Z,10.23
2018-12-16T00:26:40.779Z,7.67
2018-12-16T00:29:10.071Z,4.03
2018-12-16T00:31:39.383Z,5.40
2018-12-16T00:34:08.726Z,6.63
2018-12-16T00:36:38.384Z,8.90
2018-12-16T00:39:07.836Z,7.53
2018-12-16T00:41:37.151Z,5.87
2018-12-16T00:44:06.485Z,7.07
2018-12-16T00:46:35.875Z,5.50
2018-12-16T00:49:05.185Z,11.57
2018-12-16T00:51:34.496Z,4.57
2018-12-16T00:54:03.824Z,6.30
2018-12-16T00:56:33.195Z,3.63
2018-12-16T00:59:02.511Z,7.50
2018-12-16T01:01:31.894Z,8.30
2018-12-16T01:04:01.189Z,9.33
2018-12-16T01:06:30.503Z,4.20
2018-12-16T01:08:59.823Z,4.60
2018-12-16T01:11:29.139Z,5.30
2018-12-16T01:13:58.462Z,6.23
2018-12-16T01:16:27.818Z,4.80
2018-12-16T01:18:57.162Z,4.50
2018-12-16T01:21:26.505Z,5.13
2018-12-16T01:23:55.772Z,3.80
2018-12-16T01:26:25.111Z,4.60
2018-12-16T01:28:54.465Z,5.93
2018-12-16T01:31:23.759Z,4.20
2018-12-16T01:33:53.068Z,7.10
2018-12-16T01:36:22.408Z,4.77
2018-12-16T01:38:51.712Z,3.87
2018-12-16T01:41:21.027Z,4.83
2018-12-16T01:43:50.400Z,3.17
2018-12-16T01:46:19.659Z,6.10
2018-12-16T01:48:49.002Z,3.23
2018-12-16T01:51:18.383Z,2.73
2018-12-16T01:53:47.727Z,4.00
2018-12-16T01:56:17.027Z,3.10
2018-12-16T01:58:46.291Z,6.03
2018-12-16T02:01:15.591Z,4.50
2018-12-16T02:03:44.916Z,6.43
2018-12-16T02:06:14.175Z,8.67
2018-12-16T02:08:43.565Z,3.43
2018-12-16T02:11:12.859Z,3.80
2018-12-16T02:13:42.165Z,6.63
2018-12-16T02:16:11.487Z,4.57
2018-12-16T02:18:40.780Z,6.33
2018-12-16T02:21:10.115Z,4.00
2018-12-16T02:23:39.416Z,4.33
2018-12-16T02:26:08.726Z,10.10
2018-12-16T02:28:38.059Z,3.23
2018-12-16T02:31:08.186Z,5.07
2018-12-16T02:33:37.489Z,5.40
2018-12-16T02:36:06.841Z,8.87
2018-12-16T02:38:36.117Z,4.37
2018-12-16T02:41:05.501Z,5.87
2018-12-16T02:43:34.824Z,6.50
2018-12-16T02:46:05.162Z,5.20
2018-12-16T02:48:34.496Z,7.83
2018-12-16T02:51:03.871Z,12.67
2018-12-16T02:53:33.262Z,11.37
2018-12-16T02:56:02.621Z,15.17
2018-12-16T02:58:31.892Z,9.87
2018-12-16T03:01:01.398Z,9.43
2018-12-16T03:03:30.660Z,7.83
2018-12-16T03:06:00.019Z,11.30
2018-12-16T03:08:29.323Z,11.77
2018-12-16T03:10:58.664Z,15.63
2018-12-16T03:13:27.980Z,5.70
2018-12-16T03:15:57.271Z,16.30
2018-12-16T03:18:26.520Z,6.43
2018-12-16T03:20:55.865Z,13.13
2018-12-16T03:23:25.195Z,12.37
2018-12-16T03:25:54.519Z,8.50
2018-12-16T03:28:23.799Z,11.90
2018-12-16T03:30:53.092Z,8.00
2018-12-16T03:33:22.405Z,7.80
2018-12-16T03:35:51.683Z,13.33
2018-12-16T03:38:20.967Z,12.43
2018-12-16T03:40:50.293Z,15.37
2018-12-16T03:43:19.594Z,15.07
2018-12-16T03:45:48.886Z,12.53
2018-12-16T03:48:18.155Z,15.57
2018-12-16T03:50:47.458Z,21.47
2018-12-16T03:53:19.949Z,20.83
2018-12-16T03:55:48.102Z,9.67
2018-12-16T03:58:17.440Z,30.17
2018-12-16T04:00:46.753Z,21.20
2018-12-16T04:03:16.094Z,13.80
2018-12-16T04:05:45.381Z,23.30
2018-12-16T04:08:14.732Z,11.13
2018-12-16T04:10:44.035Z,13.00
2018-12-16T04:13:13.423Z,13.37
2018-12-16T04:15:42.737Z,8.90
2018-12-16T04:18:12.075Z,14.63
2018-12-16T04:20:41.440Z,10.87
2018-12-16T04:23:10.797Z,13.83
2018-12-16T04:25:40.101Z,12.20
2018-12-16T04:28:09.864Z,14.70
2018-12-16T04:30:39.135Z,9.63
2018-12-16T04:33:08.484Z,10.60
2018-12-16T04:35:37.855Z,17.23
2018-12-16T04:38:07.124Z,12.53
2018-12-16T04:40:36.415Z,12.10
2018-12-16T04:43:05.724Z,21.33
2018-12-16T04:45:34.992Z,23.67
2018-12-16T04:48:04.330Z,13.40
2018-12-16T04:50:33.663Z,22.77
2018-12-16T04:53:02.937Z,19.57
2018-12-16T04:55:32.240Z,8.70
2018-12-16T04:58:01.524Z,16.93
2018-12-16T05:00:30.835Z,8.97
2018-12-16T05:03:00.195Z,11.73
2018-12-16T05:05:29.518Z,15.30
2018-12-16T05:07:59.026Z,13.20
2018-12-16T05:10:30.365Z,13.33
2018-12-16T05:12:59.711Z,8.00
2018-12-16T05:15:29.002Z,9.50
2018-12-16T05:17:58.332Z,10.93
2018-12-16T05:20:27.654Z,10.50
2018-12-16T05:22:56.931Z,6.27
2018-12-16T05:25:26.267Z,9.97
2018-12-16T05:27:55.557Z,10.20
2018-12-16T05:30:24.932Z,11.90
2018-12-16T05:32:54.279Z,11.08
2018-12-16T05:35:23.556Z,8.70
2018-12-16T05:37:52.870Z,8.40
2018-12-16T05:40:22.197Z,9.13
2018-12-16T05:42:51.467Z,8.00
2018-12-16T05:45:20.796Z,11.87
2018-12-16T05:47:50.043Z,5.23
2018-12-16T05:50:19.346Z,15.07
2018-12-16T05:52:48.628Z,9.43
2018-12-16T05:55:17.978Z,12.87
2018-12-16T05:57:47.262Z,11.90
2018-12-16T06:00:16.586Z,14.03
2018-12-16T06:02:45.873Z,14.73
2018-12-16T06:05:15.196Z,5.60
2018-12-16T06:07:44.464Z,4.10
2018-12-16T06:10:13.811Z,10.17
2018-12-16T06:12:43.104Z,7.50
2018-12-16T06:15:12.574Z,7.13
2018-12-16T06:17:41.872Z,4.27
2018-12-16T06:20:11.180Z,6.70
2018-12-16T06:22:40.471Z,6.50
2018-12-16T06:25:09.849Z,10.10
2018-12-16T06:27:39.134Z,8.40
2018-12-16T06:30:08.988Z,5.10
2018-12-16T06:32:38.273Z,4.90
2018-12-16T06:35:07.897Z,12.07
2018-12-16T06:37:37.197Z,5.70
2018-12-16T06:40:06.649Z,20.60
2018-12-16T06:42:36.686Z,6.50
2018-12-16T06:45:06.343Z,9.77
2018-12-16T06:47:35.658Z,11.00
2018-12-16T06:50:05.286Z,5.17
2018-12-16T06:52:34.548Z,5.63
2018-12-16T06:55:03.901Z,16.50
2018-12-16T06:57:33.202Z,7.37
2018-12-16T08:55:50.033Z,10.90
2018-12-16T09:18:57.830Z,13.80
2018-12-16T09:21:58.340Z,7.87
2018-12-16T09:52:10.136Z,12.77
2018-12-16T09:54:44.214Z,12.13
2018-12-16T09:57:10.980Z,9.20
2018-12-16T09:59:40.422Z,14.60
2018-12-16T10:02:09.727Z,12.00
2018-12-16T10:04:39.168Z,12.53
2018-12-16T10:07:08.483Z,12.93
2018-12-16T10:09:37.938Z,11.03
2018-12-16T10:12:07.487Z,11.70
2018-12-16T10:14:37.175Z,12.53
2018-12-16T10:17:06.549Z,13.60
2018-12-16T10:19:35.883Z,9.90
2018-12-16T10:22:05.279Z,9.95
2018-12-16T10:24:34.628Z,9.80
2018-12-16T10:27:04.164Z,9.90
2018-12-16T10:29:33.477Z,8.60
2018-12-16T10:32:02.818Z,9.73
2018-12-16T10:34:32.230Z,9.10
2018-12-16T10:37:02.633Z,11.97
2018-12-16T10:39:32.081Z,9.20
2018-12-16T10:42:08.545Z,13.20
2018-12-16T10:44:38.104Z,21.33
2018-12-16T10:47:07.391Z,12.97
2018-12-16T10:49:36.855Z,15.80
2018-12-16T10:52:06.355Z,10.13
2018-12-16T10:54:36.234Z,10.03
2018-12-16T10:57:05.837Z,15.20
2018-12-16T10:59:35.351Z,7.70
2018-12-16T11:02:05.060Z,12.90
2018-12-16T11:04:34.684Z,16.20
2018-12-16T11:07:04.308Z,10.20
2018-12-16T11:09:34.031Z,14.67
2018-12-16T11:12:03.668Z,10.00
2018-12-16T11:14:33.299Z,9.30
2018-12-16T11:17:02.785Z,13.80
2018-12-16T11:19:32.656Z,15.75
2018-12-16T11:22:02.166Z,12.47
2018-12-16T11:24:31.801Z,12.60
2018-12-16T11:27:01.550Z,10.87
2018-12-16T11:29:31.164Z,11.80
2018-12-16T11:32:03.493Z,16.77
2018-12-16T11:34:35.977Z,14.90
2018-12-16T11:37:06.609Z,11.97
2018-12-16T11:39:36.406Z,9.83
2018-12-16T11:42:07.313Z,9.73
2018-12-16T11:44:36.868Z,14.87
2018-12-16T11:47:06.287Z,9.03
2018-12-16T11:49:35.727Z,19.70
2018-12-16T11:52:05.111Z,12.43
2018-12-16T11:54:34.758Z,10.15
2018-12-16T11:57:05.149Z,12.80
2018-12-16T11:59:34.515Z,15.83
2018-12-16T12:02:04.068Z,12.87
2018-12-16T12:04:33.455Z,10.37
2018-12-16T12:07:02.779Z,11.73
2018-12-16T12:09:32.059Z,17.03
2018-12-16T12:12:01.364Z,9.00
2018-12-16T12:14:30.730Z,11.97
2018-12-16T12:17:00.152Z,14.60
2018-12-16T12:19:38.895Z,10.93
2018-12-16T12:22:08.333Z,12.30
2018-12-16T12:24:37.681Z,15.87
2018-12-16T12:27:07.179Z,11.68
2018-12-16T12:29:36.563Z,16.10
2018-12-16T12:32:05.943Z,13.10
2018-12-16T12:34:35.318Z,14.80
2018-12-16T12:37:04.635Z,14.93
2018-12-16T12:39:34.044Z,14.03
2018-12-16T12:42:03.399Z,8.23
2018-12-16T12:44:32.961Z,11.87
2018-12-16T12:47:02.359Z,8.50
2018-12-16T12:49:31.801Z,15.27
2018-12-16T12:52:01.192Z,10.17
2018-12-16T12:54:30.691Z,8.40
2018-12-16T12:57:00.074Z,7.40
2018-12-16T12:59:29.423Z,15.20
2018-12-16T13:01:58.764Z,11.67
2018-12-16T13:04:28.131Z,10.13
2018-12-16T13:06:57.429Z,9.60
2018-12-16T13:09:26.884Z,8.30
2018-12-16T13:11:57.114Z,8.40
2018-12-16T13:14:26.764Z,20.93
2018-12-16T13:16:56.115Z,53.63
2018-12-16T13:19:25.483Z,17.03
2018-12-16T13:21:54.802Z,12.03
2018-12-16T13:24:24.159Z,7.90
2018-12-16T13:26:53.480Z,12.67
2018-12-16T13:29:22.839Z,12.60
2018-12-16T13:31:52.212Z,15.53
2018-12-16T13:34:21.678Z,22.40
2018-12-16T13:36:51.084Z,17.87
2018-12-16T13:39:20.704Z,12.40
2018-12-16T13:41:50.294Z,12.07
2018-12-16T13:44:20.599Z,17.67
2018-12-16T13:46:50.509Z,21.83
2018-12-16T13:49:20.469Z,13.00
2018-12-16T13:51:49.792Z,10.90
2018-12-16T13:54:19.156Z,14.23
2018-12-16T13:56:48.787Z,14.43
2018-12-16T13:59:18.200Z,37.07
2018-12-16T14:01:47.512Z,20.97
2018-12-16T14:04:16.865Z,10.60
2018-12-16T14:06:46.296Z,18.40
2018-12-16T14:58:09.207Z,35.93
2018-12-16T15:00:38.633Z,24.43
2018-12-16T15:03:08.068Z,18.97
2018-12-16T15:05:37.827Z,18.00
2018-12-16T15:08:07.435Z,27.27
2018-12-16T15:10:37.107Z,21.50
2018-12-16T15:13:06.964Z,30.63
2018-12-16T15:15:36.747Z,28.63
2018-12-16T15:18:06.575Z,17.13
2018-12-16T15:20:36.056Z,15.17
2018-12-16T15:23:05.369Z,14.90
2018-12-16T15:25:34.895Z,21.85
2018-12-16T15:28:04.303Z,29.70
2018-12-16T15:30:33.631Z,20.53
2018-12-16T15:33:06.252Z,12.90
2018-12-16T15:35:35.535Z,29.73
2018-12-16T15:38:05.102Z,18.50
2018-12-16T15:40:35.613Z,27.37
2018-12-16T15:43:04.996Z,18.83
2018-12-16T15:45:34.515Z,24.93
2018-12-16T15:48:03.903Z,18.87
2018-12-16T15:50:33.255Z,33.17
2018-12-16T15:53:02.711Z,20.60
2018-12-16T15:55:32.284Z,22.57
2018-12-16T15:58:01.666Z,30.83
2018-12-16T16:00:31.023Z,20.90
2018-12-16T16:03:00.307Z,26.00
2018-12-16T16:05:29.643Z,20.17
2018-12-16T16:07:58.932Z,28.97
2018-12-16T16:10:28.316Z,27.37
2018-12-16T16:12:57.669Z,21.57
2018-12-16T16:15:27.031Z,28.30
2018-12-16T16:17:56.447Z,23.23
2018-12-16T16:20:25.771Z,30.80
2018-12-16T16:22:55.122Z,19.40
2018-12-16T16:25:24.444Z,26.53
2018-12-16T16:27:54.040Z,22.37
2018-12-16T16:30:23.359Z,29.53
2018-12-16T16:32:52.709Z,35.67
2018-12-16T16:35:22.087Z,34.63
2018-12-16T16:37:51.644Z,31.37
2018-12-16T16:40:21.542Z,37.50
2018-12-16T16:42:51.014Z,25.03
2018-12-16T16:45:20.671Z,34.57
2018-12-16T16:47:50.071Z,26.00
2018-12-16T16:50:19.536Z,42.60
2018-12-16T16:52:48.982Z,48.70
2018-12-16T16:55:18.283Z,60.73
2018-12-16T16:57:47.714Z,43.13
2018-12-16T17:00:17.302Z,46.97
2018-12-16T17:02:46.671Z,36.90
2018-12-16T17:05:15.988Z,32.43
2018-12-16T17:07:45.698Z,38.63
2018-12-16T17:10:15.039Z,56.77
2018-12-16T17:12:44.400Z,31.90
2018-12-16T17:15:13.812Z,40.90
2018-12-16T17:17:44.004Z,23.20
2018-12-16T17:20:13.388Z,42.30
2018-12-16T17:22:42.810Z,34.90
2018-12-16T17:25:12.303Z,28.37
2018-12-16T17:27:41.719Z,24.27
2018-12-16T17:30:11.883Z,42.90
2018-12-16T17:32:41.239Z,41.83
2018-12-16T17:35:10.539Z,30.00
2018-12-16T17:37:40.192Z,28.73
2018-12-16T17:40:09.583Z,36.13
2018-12-16T17:42:39.007Z,28.47
2018-12-16T17:45:09.512Z,45.07
2018-12-16T17:47:38.924Z,46.50
2018-12-16T17:50:09.094Z,39.33
2018-12-16T17:52:38.402Z,42.97
2018-12-16T17:55:07.940Z,53.67
2018-12-16T17:57:37.542Z,26.57
2018-12-16T18:00:08.068Z,30.00
2018-12-16T18:02:37.440Z,45.97
2018-12-16T18:05:07.197Z,25.50
2018-12-16T18:07:36.876Z,32.27
2018-12-16T18:10:06.507Z,33.27
2018-12-16T18:12:35.880Z,32.77
2018-12-16T18:15:06.153Z,24.73
2018-12-16T18:17:35.527Z,29.20
2018-12-16T18:20:05.219Z,34.03
2018-12-16T18:22:34.550Z,22.03
2018-12-16T18:25:03.943Z,25.67
2018-12-16T18:27:33.281Z,27.00
2018-12-16T18:30:02.787Z,41.03
2018-12-16T18:32:32.143Z,39.63
2018-12-16T18:35:01.470Z,51.47
2018-12-16T18:37:30.832Z,48.97
2018-12-16T18:40:00.219Z,40.97
2018-12-16T18:42:29.638Z,38.60
2018-12-16T18:44:58.999Z,41.43
2018-12-16T18:47:28.435Z,46.70
2018-12-16T18:49:57.783Z,43.07
2018-12-16T18:52:27.083Z,41.73
2018-12-16T18:54:56.392Z,39.07
2018-12-16T18:57:26.748Z,40.23
2018-12-16T18:59:56.895Z,30.70
2018-12-16T19:02:26.259Z,29.77
2018-12-16T19:04:55.676Z,35.73
2018-12-16T19:07:25.130Z,33.10
2018-12-16T19:09:55.771Z,24.83
2018-12-16T19:12:25.158Z,33.33
2018-12-16T19:14:55.618Z,26.30
2018-12-16T19:17:25.060Z,20.50
2018-12-16T19:19:54.899Z,19.93
2018-12-16T19:22:25.272Z,26.57
2018-12-16T19:24:54.719Z,26.93
2018-12-16T19:27:25.271Z,23.80
2018-12-16T19:29:55.897Z,19.57
2018-12-16T19:32:25.646Z,23.77
2018-12-16T19:34:56.047Z,28.23
2018-12-16T19:37:25.523Z,18.53
2018-12-16T19:39:54.985Z,30.07
2018-12-16T19:42:24.902Z,28.20
2018-12-16T19:44:54.450Z,34.60
2018-12-16T19:47:23.938Z,36.43
2018-12-16T19:49:53.303Z,46.43
2018-12-16T19:52:22.734Z,37.73
2018-12-16T19:54:53.452Z,51.67
2018-12-16T19:57:22.844Z,41.77
2018-12-16T19:59:55.259Z,54.87
2018-12-16T20:02:24.640Z,53.20
2018-12-16T20:05:27.590Z,64.43
2018-12-16T20:07:57.187Z,46.17
2018-12-16T20:10:26.699Z,41.63
2018-12-16T20:12:56.182Z,30.73
2018-12-16T20:15:25.650Z,35.77
2018-12-16T20:17:54.969Z,35.30
2018-12-16T20:20:24.896Z,31.83
2018-12-16T20:22:54.487Z,41.93
2018-12-16T20:25:26.837Z,31.33
2018-12-16T20:27:56.226Z,23.70
2018-12-16T20:30:25.687Z,32.37
2018-12-16T20:32:55.086Z,29.10
2018-12-16T20:35:24.877Z,18.98
2018-12-16T20:37:54.760Z,24.10
2018-12-16T20:40:25.150Z,22.57
2018-12-16T20:42:55.004Z,29.90
2018-12-16T20:45:24.450Z,33.67
2018-12-16T20:47:54.040Z,44.00
2018-12-16T20:50:23.569Z,31.50
2018-12-16T20:52:53.718Z,33.77
2018-12-16T20:55:23.137Z,36.33
2018-12-16T20:57:52.717Z,26.00
2018-12-16T21:00:23.074Z,33.80
2018-12-16T21:02:52.572Z,41.33
2018-12-16T21:05:22.521Z,30.00
2018-12-16T21:07:52.434Z,25.37
2018-12-16T21:10:21.927Z,21.53
2018-12-16T21:12:56.501Z,29.03
2018-12-16T21:15:30.984Z,20.97
2018-12-16T21:18:05.814Z,26.73
2018-12-16T21:20:35.483Z,41.23
2018-12-16T21:23:05.000Z,40.50
2018-12-16T21:25:34.562Z,24.67
2018-12-16T21:28:03.986Z,32.03
2018-12-16T21:30:33.400Z,28.67
2018-12-16T21:33:02.948Z,31.23
2018-12-16T21:35:32.444Z,26.17
2018-12-16T21:38:01.946Z,31.90
2018-12-16T21:40:31.505Z,35.00
2018-12-16T21:43:00.971Z,27.90
2018-12-16T21:45:30.386Z,31.70
2018-12-16T21:47:59.870Z,30.53
2018-12-16T21:50:29.720Z,39.50
2018-12-16T21:52:59.142Z,47.97
2018-12-16T21:55:28.699Z,44.33
2018-12-16T21:57:58.141Z,33.27
2018-12-16T22:00:27.493Z,26.03
2018-12-16T22:02:57.179Z,28.53
2018-12-16T22:05:32.039Z,32.13
2018-12-16T22:08:01.748Z,33.77
2018-12-16T22:10:31.313Z,35.37
2018-12-16T22:13:01.611Z,33.73
2018-12-16T22:15:31.069Z,31.17
2018-12-16T22:18:00.491Z,27.03
2018-12-16T22:20:34.603Z,37.90
